Terminal Aerodrome Forecast
Issued by NWS Denver/Boulder, CO

Home | Current Version | Previous Version | Text Only | Print | Product List | Glossary On
Versions: 1 2 3 4 5 6 7 8 9 10 11 12 13 14 15 16 17 18 19 20 21 22 23 24 25 26 27 28 29 30 31 32 33 34 35 36 37 38 39 40 41 42 43 44 45 46 47 48 49 50
000
FTUS45 KBOU 212102 AAA
TAFDEN
TAF AMD
KDEN 212102Z 2121/2224 04005KT P6SM FEW110 SCT200
     FM212200 16004KT P6SM FEW080 SCT110
     FM220100 VRB04KT P6SM FEW040 SCT080
     FM220600 21006KT P6SM SCT030 BKN050
     FM221100 34006KT P6SM VCFG BKN010 OVC030
     FM221600 VRB05KT P6SM VCSH OVC015=

USA.gov is the U.S. government's official web portal to all federal, state and local government web resources and services.